createdAt,value
2019-04-01T00:01:11.381Z,12.64
2019-04-01T00:03:41.018Z,12.63
2019-04-01T00:06:10.558Z,12.64
2019-04-01T00:08:40.171Z,12.64
2019-04-01T00:11:09.828Z,12.65
2019-04-01T00:13:39.463Z,12.65
2019-04-01T00:16:09.148Z,12.61
2019-04-01T00:18:38.705Z,12.59
2019-04-01T00:21:08.500Z,12.64
2019-04-01T00:23:38.003Z,12.63
2019-04-01T00:26:07.672Z,12.57
2019-04-01T00:28:37.365Z,12.52
2019-04-01T00:31:07.005Z,12.52
2019-04-01T00:33:36.733Z,12.52
2019-04-01T00:36:06.442Z,12.53
2019-04-01T00:38:36.107Z,12.53
2019-04-01T00:41:05.744Z,12.55
2019-04-01T00:44:00.355Z,12.51
2019-04-01T00:46:31.530Z,12.48
2019-04-01T00:49:01.139Z,12.46
2019-04-01T00:51:30.766Z,12.44
2019-04-01T00:54:00.450Z,12.42
2019-04-01T00:56:30.103Z,12.41
2019-04-01T00:58:59.671Z,12.38
2019-04-01T01:01:29.342Z,12.32
2019-04-01T01:03:59.016Z,12.26
2019-04-01T01:06:28.661Z,12.30
2019-04-01T01:08:58.305Z,12.28
2019-04-01T01:11:27.947Z,12.28
2019-04-01T01:13:57.620Z,12.27
2019-04-01T01:16:27.385Z,12.27
2019-04-01T01:18:57.070Z,12.29
2019-04-01T01:21:26.695Z,12.24
2019-04-01T01:23:56.380Z,12.20
2019-04-01T01:26:26.019Z,12.14
2019-04-01T01:28:55.700Z,12.12
2019-04-01T01:31:25.347Z,12.10
2019-04-01T01:33:55.001Z,12.11
2019-04-01T01:36:24.678Z,12.08
2019-04-01T01:38:54.290Z,12.05
2019-04-01T01:41:23.963Z,12.00
2019-04-01T01:43:53.420Z,11.94
2019-04-01T01:46:23.089Z,11.92
2019-04-01T01:48:52.855Z,11.91
2019-04-01T01:51:22.616Z,11.93
2019-04-01T01:53:52.281Z,11.93
2019-04-01T01:56:22.024Z,11.89
2019-04-01T01:58:51.692Z,11.88
2019-04-01T02:01:21.341Z,11.89
2019-04-01T02:03:51.024Z,11.86
2019-04-01T02:06:20.760Z,11.86
2019-04-01T02:08:50.348Z,11.85
2019-04-01T02:11:20.000Z,11.81
2019-04-01T02:13:49.755Z,11.77
2019-04-01T02:16:19.477Z,11.72
2019-04-01T02:18:49.197Z,11.67
2019-04-01T02:21:18.856Z,11.67
2019-04-01T02:23:48.469Z,11.68
2019-04-01T02:26:18.211Z,11.67
2019-04-01T02:28:47.856Z,11.63
2019-04-01T02:31:17.626Z,11.60
2019-04-01T02:33:47.280Z,11.54
2019-04-01T02:36:16.973Z,11.51
2019-04-01T02:38:46.616Z,11.48
2019-04-01T02:41:16.393Z,11.47
2019-04-01T02:43:46.009Z,11.42
2019-04-01T02:46:15.703Z,11.37
2019-04-01T02:48:45.434Z,11.31
2019-04-01T02:51:15.094Z,11.30
2019-04-01T02:53:44.766Z,11.29
2019-04-01T02:56:14.414Z,11.29
2019-04-01T02:58:44.103Z,11.27
2019-04-01T03:01:13.739Z,11.28
2019-04-01T03:03:43.381Z,11.28
2019-04-01T03:06:12.968Z,11.23
2019-04-01T03:08:42.605Z,11.22
2019-04-01T03:11:12.270Z,11.22
2019-04-01T03:13:41.918Z,11.20
2019-04-01T03:16:11.590Z,11.17
2019-04-01T03:18:41.258Z,11.10
2019-04-01T03:21:10.925Z,11.06
2019-04-01T03:23:40.564Z,11.06
2019-04-01T03:26:10.246Z,11.02
2019-04-01T03:28:39.879Z,10.75
2019-04-01T03:31:09.543Z,10.81
2019-04-01T03:33:39.108Z,10.82
2019-04-01T03:36:08.846Z,10.81
2019-04-01T03:38:38.542Z,10.80
2019-04-01T03:41:08.198Z,10.86
2019-04-01T03:43:37.853Z,10.88
2019-04-01T03:46:07.503Z,10.87
2019-04-01T03:48:37.168Z,10.85
2019-04-01T03:51:06.820Z,10.82
2019-04-01T03:53:36.422Z,10.80
2019-04-01T03:56:06.895Z,10.79
2019-04-01T03:58:36.556Z,10.71
2019-04-01T04:01:06.292Z,10.65
2019-04-01T04:03:35.993Z,10.64
2019-04-01T04:06:05.649Z,10.62
2019-04-01T04:08:35.326Z,10.57
2019-04-01T04:11:05.260Z,10.50
2019-04-01T04:13:34.821Z,10.42
2019-04-01T04:16:04.510Z,10.43
2019-04-01T04:18:34.109Z,10.45
2019-04-01T04:21:03.851Z,10.33
2019-04-01T04:23:33.448Z,10.36
2019-04-01T04:26:03.112Z,10.35
2019-04-01T04:31:06.444Z,10.35
2019-04-01T04:33:36.089Z,10.37
2019-04-01T04:36:05.935Z,10.40
2019-04-01T04:38:35.623Z,10.38
2019-04-01T04:41:05.284Z,10.30
2019-04-01T04:43:34.924Z,10.27
2019-04-01T04:46:04.575Z,10.27
2019-04-01T04:48:34.257Z,10.25
2019-04-01T04:51:03.898Z,10.14
2019-04-01T04:53:33.610Z,10.13
2019-04-01T04:56:03.385Z,10.12
2019-04-01T04:58:33.097Z,10.02
2019-04-01T05:01:02.683Z,9.65
2019-04-01T05:03:32.382Z,9.84
2019-04-01T05:06:02.034Z,10.00
2019-04-01T05:08:31.772Z,10.08
2019-04-01T05:11:02.339Z,10.18
2019-04-01T05:13:32.039Z,10.22
2019-04-01T05:16:01.735Z,10.23
2019-04-01T05:18:31.533Z,10.29
2019-04-01T05:21:01.196Z,10.33
2019-04-01T05:23:30.953Z,10.35
2019-04-01T05:26:00.613Z,10.45
2019-04-01T05:28:30.480Z,10.51
2019-04-01T05:31:01.177Z,10.60
2019-04-01T05:33:30.816Z,10.72
2019-04-01T05:36:00.373Z,10.85
2019-04-01T05:38:30.040Z,10.97
2019-04-01T05:40:59.808Z,11.12
2019-04-01T05:43:29.849Z,11.31
2019-04-01T05:45:59.510Z,11.48
2019-04-01T05:48:31.660Z,11.62
2019-04-01T05:51:01.193Z,11.77
2019-04-01T05:53:30.894Z,11.95
2019-04-01T05:56:00.543Z,12.14
2019-04-01T05:58:30.397Z,12.37
2019-04-01T06:01:05.575Z,12.62
2019-04-01T06:03:35.450Z,12.80
2019-04-01T06:06:05.194Z,12.97
2019-04-01T06:08:34.970Z,13.16
2019-04-01T06:11:04.622Z,13.33
2019-04-01T06:13:34.264Z,13.60
2019-04-01T06:16:04.047Z,13.77
2019-04-01T06:18:33.785Z,13.81
2019-04-01T06:21:03.584Z,13.95
2019-04-01T06:23:33.423Z,14.13
2019-04-01T06:26:03.081Z,14.42
2019-04-01T06:28:32.782Z,14.73
2019-04-01T06:31:02.518Z,15.11
2019-04-01T06:33:32.163Z,15.53
2019-04-01T06:36:01.803Z,15.85
2019-04-01T06:38:31.453Z,16.10
2019-04-01T06:41:01.070Z,16.17
2019-04-01T06:43:30.725Z,16.50
2019-04-01T06:46:00.479Z,16.68
2019-04-01T06:48:30.113Z,16.85
2019-04-01T06:50:59.797Z,17.01
2019-04-01T06:53:29.450Z,17.18
2019-04-01T06:55:59.105Z,17.34
2019-04-01T06:58:28.722Z,17.74
2019-04-01T07:00:58.345Z,17.39
2019-04-01T07:03:28.114Z,17.53
2019-04-01T07:05:57.778Z,16.31
2019-04-01T07:08:27.353Z,15.73
2019-04-01T07:10:57.092Z,15.99
2019-04-01T07:13:26.652Z,16.84
2019-04-01T07:15:56.412Z,17.29
2019-04-01T07:18:26.095Z,17.30
2019-04-01T07:20:55.618Z,16.71
2019-04-01T07:23:25.306Z,16.32
2019-04-01T07:25:54.939Z,16.15
2019-04-01T07:28:24.592Z,17.12
2019-04-01T07:30:54.369Z,17.08
2019-04-01T07:33:24.035Z,16.67
2019-04-01T07:35:53.675Z,16.57
2019-04-01T07:38:23.372Z,16.62
2019-04-01T07:40:53.505Z,16.22
2019-04-01T07:43:23.080Z,16.32
2019-04-01T07:45:53.035Z,16.73
2019-04-01T07:48:22.802Z,16.72
2019-04-01T07:50:52.568Z,15.58
2019-04-01T07:53:22.208Z,16.68
2019-04-01T07:55:51.796Z,17.83
2019-04-01T07:58:21.553Z,17.80
2019-04-01T08:00:51.380Z,17.65
2019-04-01T08:03:21.231Z,17.97
2019-04-01T08:05:51.087Z,16.04
2019-04-01T08:08:21.658Z,16.12
2019-04-01T08:10:51.224Z,16.62
2019-04-01T08:13:20.785Z,16.25
2019-04-01T08:15:50.530Z,15.73
2019-04-01T08:18:20.169Z,15.52
2019-04-01T08:20:49.768Z,15.67
2019-04-01T08:23:19.313Z,15.58
2019-04-01T08:25:48.974Z,16.45
2019-04-01T08:28:18.616Z,16.69
2019-04-01T08:30:49.357Z,15.82
2019-04-01T08:33:19.229Z,16.21
2019-04-01T08:35:48.815Z,16.75
2019-04-01T08:38:18.613Z,17.24
2019-04-01T08:40:48.378Z,16.80
2019-04-01T08:43:18.016Z,16.23
2019-04-01T08:45:47.578Z,16.28
2019-04-01T08:48:17.143Z,17.17
2019-04-01T08:50:46.788Z,17.15
2019-04-01T08:53:16.549Z,16.36
2019-04-01T08:55:46.219Z,16.63
2019-04-01T08:58:16.796Z,17.41
2019-04-01T09:00:46.447Z,18.46
2019-04-01T09:03:16.088Z,18.71
2019-04-01T09:05:45.795Z,17.64
2019-04-01T09:08:16.319Z,16.91
2019-04-01T09:10:46.360Z,17.40
2019-04-01T09:13:16.387Z,17.03
2019-04-01T09:15:45.953Z,17.17
2019-04-01T09:18:15.512Z,17.32
2019-04-01T09:20:45.163Z,16.38
2019-04-01T09:23:14.836Z,16.50
2019-04-01T09:25:44.536Z,16.49
2019-04-01T09:28:14.496Z,16.88
2019-04-01T09:30:44.222Z,16.56
2019-04-01T09:33:13.895Z,17.16
2019-04-01T09:35:44.287Z,16.39
2019-04-01T09:38:14.066Z,16.52
2019-04-01T09:40:43.807Z,17.65
2019-04-01T09:43:14.301Z,16.57
2019-04-01T09:45:44.353Z,16.18
2019-04-01T09:48:14.136Z,17.15
2019-04-01T09:50:43.781Z,17.17
2019-04-01T09:53:13.580Z,17.01
2019-04-01T09:55:43.437Z,16.67
2019-04-01T09:58:13.063Z,16.83
2019-04-01T10:00:42.733Z,17.75
2019-04-01T10:03:12.374Z,18.67
2019-04-01T10:05:42.226Z,21.51
2019-04-01T10:08:11.870Z,20.06
2019-04-01T10:10:41.579Z,19.56
2019-04-01T10:13:11.216Z,21.48
2019-04-01T10:15:40.875Z,19.84
2019-04-01T10:18:10.508Z,18.58
2019-04-01T10:20:40.299Z,18.98
2019-04-01T10:23:09.953Z,18.73
2019-04-01T10:25:39.597Z,17.77
2019-04-01T10:28:09.649Z,17.10
2019-04-01T10:30:41.504Z,17.02
2019-04-01T10:33:10.886Z,18.05
2019-04-01T10:35:40.296Z,17.23
2019-04-01T10:38:09.707Z,17.22
2019-04-01T10:40:39.160Z,17.49
2019-04-01T10:43:08.534Z,17.82
2019-04-01T10:45:37.963Z,18.24
2019-04-01T10:48:07.399Z,17.89
2019-04-01T10:50:36.875Z,17.67
2019-04-01T10:53:06.379Z,17.61
2019-04-01T10:55:35.835Z,17.55
2019-04-01T10:58:05.391Z,17.29
2019-04-01T11:00:34.799Z,16.98
2019-04-01T11:03:06.210Z,17.82
2019-04-01T11:05:35.316Z,17.26
2019-04-01T11:08:04.841Z,17.42
2019-04-01T11:10:34.276Z,17.52
2019-04-01T11:13:03.699Z,18.36
2019-04-01T11:15:33.145Z,18.55
2019-04-01T11:18:02.565Z,18.32
2019-04-01T11:20:31.970Z,18.07
2019-04-01T11:23:02.803Z,18.53
2019-04-01T11:25:32.553Z,19.37
2019-04-01T11:28:02.071Z,19.44
2019-04-01T11:30:31.459Z,18.79
2019-04-01T11:33:00.980Z,19.43
2019-04-01T11:35:30.384Z,19.28
2019-04-01T11:37:59.802Z,19.38
2019-04-01T11:40:29.241Z,19.38
2019-04-01T11:42:58.829Z,19.75
2019-04-01T11:45:28.219Z,20.65
2019-04-01T11:47:57.770Z,21.68
2019-04-01T11:50:27.184Z,20.31
2019-04-01T11:52:56.617Z,20.21
2019-04-01T11:55:26.004Z,20.60
2019-04-01T11:57:55.427Z,20.19
2019-04-01T12:00:26.371Z,19.23
2019-04-01T12:02:55.962Z,19.29
2019-04-01T12:05:25.359Z,20.55
2019-04-01T12:07:54.804Z,20.25
2019-04-01T12:10:24.190Z,21.30
2019-04-01T12:12:53.624Z,21.11
2019-04-01T12:15:23.017Z,20.85
2019-04-01T12:17:52.426Z,20.97
2019-04-01T12:20:21.827Z,21.00
2019-04-01T12:22:53.184Z,20.62
2019-04-01T12:25:22.551Z,20.30
2019-04-01T12:27:51.975Z,21.59
2019-04-01T12:30:21.361Z,22.72
2019-04-01T12:32:50.830Z,20.05
2019-04-01T12:35:20.243Z,19.90
2019-04-01T12:37:49.649Z,20.30
2019-04-01T12:40:19.018Z,20.29
2019-04-01T12:42:50.803Z,20.15
2019-04-01T12:45:19.558Z,20.39
2019-04-01T12:47:49.033Z,19.51
2019-04-01T12:50:18.431Z,19.27
2019-04-01T12:52:47.853Z,20.09
2019-04-01T12:55:17.215Z,20.09
2019-04-01T12:57:48.471Z,19.90
2019-04-01T13:00:17.847Z,20.93
2019-04-01T13:02:47.288Z,21.67
2019-04-01T13:05:16.646Z,22.02
2019-04-01T13:07:46.027Z,21.31
2019-04-01T13:10:15.462Z,20.47
2019-04-01T13:12:46.335Z,21.58
2019-04-01T13:15:15.991Z,20.73
2019-04-01T13:17:45.382Z,21.46
2019-04-01T13:20:15.017Z,21.01
2019-04-01T13:22:44.562Z,21.25
2019-04-01T13:25:14.261Z,21.69
2019-04-01T13:27:43.818Z,20.69
2019-04-01T13:30:13.314Z,20.26
2019-04-01T13:32:42.726Z,20.97
2019-04-01T13:35:12.143Z,20.13
2019-04-01T13:37:41.528Z,20.09
2019-04-01T13:40:11.052Z,20.36
2019-04-01T13:42:40.435Z,20.65
2019-04-01T13:45:09.874Z,20.25
2019-04-01T13:47:41.265Z,20.61
2019-04-01T13:50:10.482Z,21.87
2019-04-01T13:52:39.837Z,20.48
2019-04-01T13:55:10.049Z,20.01
2019-04-01T13:57:41.903Z,19.64
2019-04-01T14:00:11.831Z,19.65
2019-04-01T14:02:42.742Z,19.61
2019-04-01T14:05:12.213Z,19.70
2019-04-01T14:07:41.599Z,19.83
2019-04-01T14:10:11.278Z,19.98
2019-04-01T14:12:40.908Z,20.36
2019-04-01T14:15:10.431Z,20.23
2019-04-01T14:17:40.202Z,20.77
2019-04-01T14:20:09.556Z,20.05
2019-04-01T14:22:39.011Z,19.64
2019-04-01T14:25:08.407Z,19.50
2019-04-01T14:27:39.284Z,19.59
2019-04-01T14:30:08.810Z,19.75
2019-04-01T14:32:38.694Z,19.37
2019-04-01T14:35:08.211Z,19.20
2019-04-01T14:37:37.726Z,19.64
2019-04-01T14:40:08.596Z,19.57
2019-04-01T14:42:39.651Z,19.69
2019-04-01T14:45:09.810Z,19.45
2019-04-01T14:47:55.877Z,19.29
2019-04-01T14:50:10.324Z,19.46
2019-04-01T14:52:41.310Z,19.73
2019-04-01T14:55:11.038Z,19.91
2019-04-01T14:57:40.503Z,19.46
2019-04-01T15:00:11.593Z,19.95
2019-04-01T15:02:41.104Z,19.81
2019-04-01T15:05:10.590Z,19.69
2019-04-01T15:07:40.032Z,20.10
2019-04-01T15:10:09.425Z,20.61
2019-04-01T15:12:39.645Z,20.08
2019-04-01T15:15:09.808Z,20.44
2019-04-01T15:17:39.272Z,19.73
2019-04-01T15:20:08.725Z,19.54
2019-04-01T15:22:38.091Z,19.22
2019-04-01T15:25:07.657Z,19.58
2019-04-01T15:27:37.053Z,19.43
2019-04-01T15:30:07.199Z,19.56
2019-04-01T15:32:36.612Z,19.35
2019-04-01T15:35:06.777Z,19.28
2019-04-01T15:37:36.229Z,19.44
2019-04-01T15:40:06.901Z,19.56
2019-04-01T15:42:36.356Z,19.70
2019-04-01T15:45:06.375Z,19.93
2019-04-01T15:47:36.212Z,18.91
2019-04-01T15:50:06.201Z,18.88
2019-04-01T15:52:36.299Z,19.16
2019-04-01T15:55:06.189Z,19.03
2019-04-01T15:57:35.697Z,19.31
2019-04-01T16:00:05.528Z,19.30
2019-04-01T16:02:34.888Z,19.74
2019-04-01T16:05:05.912Z,18.78
2019-04-01T16:07:35.479Z,19.33
2019-04-01T16:10:05.394Z,19.21
2019-04-01T16:12:34.993Z,19.31
2019-04-01T16:15:04.589Z,19.08
2019-04-01T16:17:34.225Z,18.60
2019-04-01T16:20:03.995Z,18.74
2019-04-01T16:22:34.853Z,18.59
2019-04-01T16:25:06.157Z,18.51
2019-04-01T16:27:36.390Z,18.77
2019-04-01T16:30:07.335Z,18.86
2019-04-01T16:32:40.567Z,18.93
2019-04-01T16:35:13.445Z,19.44
2019-04-01T16:37:42.814Z,18.86
2019-04-01T16:40:12.194Z,18.56
2019-04-01T16:42:41.672Z,18.76
2019-04-01T16:45:12.449Z,18.67
2019-04-01T16:47:42.590Z,19.06
2019-04-01T16:50:11.983Z,19.25
2019-04-01T16:52:41.410Z,19.30
2019-04-01T16:55:10.812Z,19.63
2019-04-01T16:57:40.549Z,19.85
2019-04-01T17:00:09.963Z,20.09
2019-04-01T17:02:39.442Z,19.95
2019-04-01T17:05:10.506Z,20.02
2019-04-01T17:07:43.689Z,20.01
2019-04-01T17:10:20.039Z,20.04
2019-04-01T17:12:50.915Z,19.88
2019-04-01T17:15:21.390Z,19.78
2019-04-01T17:17:51.223Z,19.81
2019-04-01T17:20:20.719Z,19.72
2019-04-01T17:22:50.199Z,19.77
2019-04-01T17:25:19.625Z,19.69
2019-04-01T17:27:49.052Z,19.64
2019-04-01T17:30:18.507Z,19.57
2019-04-01T17:32:48.063Z,19.57
2019-04-01T17:35:17.413Z,19.49
2019-04-01T17:37:46.881Z,19.38
2019-04-01T17:40:17.239Z,19.21
2019-04-01T17:42:47.090Z,19.08
2019-04-01T17:45:36.763Z,18.97
2019-04-01T17:48:06.781Z,18.94
2019-04-01T17:50:36.167Z,18.83
2019-04-01T17:53:06.810Z,18.78
2019-04-01T17:55:36.423Z,18.71
2019-04-01T17:58:06.482Z,18.61
2019-04-01T18:00:37.915Z,18.54
2019-04-01T18:03:09.341Z,18.47
2019-04-01T18:05:38.437Z,18.31
2019-04-01T18:08:07.893Z,18.17
2019-04-01T18:10:37.250Z,18.17
2019-04-01T18:13:06.727Z,18.13
2019-04-01T18:15:36.126Z,18.12
2019-04-01T18:18:05.636Z,18.09
2019-04-01T18:20:34.983Z,18.05
2019-04-01T18:23:04.472Z,17.97
2019-04-01T18:25:33.918Z,17.93
2019-04-01T18:28:03.361Z,17.85
2019-04-01T18:30:32.743Z,17.82
2019-04-01T18:33:02.336Z,17.79
2019-04-01T18:35:31.708Z,17.66
2019-04-01T18:38:01.108Z,17.70
2019-04-01T18:40:33.292Z,17.54
2019-04-01T18:43:01.729Z,17.50
2019-04-01T18:45:31.157Z,17.55
2019-04-01T18:48:00.562Z,17.45
2019-04-01T18:50:30.030Z,17.39
2019-04-01T18:52:59.373Z,17.35
2019-04-01T18:55:28.833Z,17.27
2019-04-01T18:57:58.292Z,17.19
2019-04-01T19:00:27.751Z,17.08
2019-04-01T19:02:57.661Z,16.95
2019-04-01T19:05:27.228Z,16.97
2019-04-01T19:07:56.628Z,16.94
2019-04-01T19:10:26.190Z,16.86
2019-04-01T19:13:05.899Z,16.74
2019-04-01T19:15:28.060Z,16.67
2019-04-01T19:17:57.885Z,16.59
2019-04-01T19:20:30.206Z,16.64
2019-04-01T19:22:58.631Z,16.69
2019-04-01T19:25:28.146Z,16.79
2019-04-01T19:27:57.626Z,16.85
2019-04-01T19:30:27.077Z,16.89
2019-04-01T19:32:56.461Z,16.95
2019-04-01T19:35:25.950Z,16.99
2019-04-01T19:37:56.282Z,16.99
2019-04-01T19:40:26.201Z,16.93
2019-04-01T19:42:55.968Z,16.87
2019-04-01T19:45:25.679Z,16.64
2019-04-01T19:47:57.306Z,16.64
2019-04-01T19:50:26.330Z,16.79
2019-04-01T19:52:55.745Z,16.86
2019-04-01T19:55:25.273Z,16.85
2019-04-01T19:57:56.040Z,16.77
2019-04-01T20:00:28.100Z,16.71
2019-04-01T20:02:56.898Z,16.68
2019-04-01T20:05:26.407Z,16.62
2019-04-01T20:07:55.902Z,16.59
2019-04-01T20:10:28.254Z,16.56
2019-04-01T20:12:56.601Z,16.54
2019-04-01T20:15:26.030Z,16.50
2019-04-01T20:17:55.450Z,16.49
2019-04-01T20:20:24.994Z,16.46
2019-04-01T20:22:54.750Z,16.47
2019-04-01T20:25:24.158Z,16.43
2019-04-01T20:27:53.834Z,16.39
2019-04-01T20:30:23.912Z,16.32
2019-04-01T20:32:53.407Z,16.25
2019-04-01T20:35:24.076Z,16.19
2019-04-01T20:37:53.810Z,16.13
2019-04-01T20:40:24.258Z,16.09
2019-04-01T20:42:55.045Z,16.00
2019-04-01T20:45:25.933Z,15.92
2019-04-01T20:47:55.626Z,15.87
2019-04-01T20:50:25.526Z,15.80
2019-04-01T20:52:55.358Z,15.79
2019-04-01T20:55:25.050Z,15.80
2019-04-01T20:57:55.572Z,15.79
2019-04-01T21:00:25.333Z,15.78
2019-04-01T21:02:55.140Z,15.77
2019-04-01T21:05:24.796Z,15.74
2019-04-01T21:07:54.441Z,15.69
2019-04-01T21:10:24.209Z,15.65
2019-04-01T21:12:53.850Z,15.60
2019-04-01T21:15:23.749Z,15.57
2019-04-01T21:17:53.394Z,15.54
2019-04-01T21:20:23.050Z,15.47
2019-04-01T21:22:52.797Z,15.42
2019-04-01T21:25:22.447Z,15.39
2019-04-01T21:27:53.083Z,15.34
2019-04-01T21:30:23.022Z,15.33
2019-04-01T21:32:52.655Z,15.33
2019-04-01T21:35:22.232Z,15.29
2019-04-01T21:37:52.011Z,15.27
2019-04-01T21:40:21.777Z,15.25
2019-04-01T21:42:51.578Z,15.22
2019-04-01T21:45:21.667Z,15.18
2019-04-01T21:47:51.656Z,15.11
2019-04-01T21:50:21.412Z,15.13
2019-04-01T21:52:51.163Z,15.19
2019-04-01T21:55:20.990Z,15.22
2019-04-01T21:57:51.331Z,15.22
2019-04-01T22:00:39.065Z,15.22
2019-04-01T22:03:08.735Z,15.17
2019-04-01T22:05:38.312Z,15.09
2019-04-01T22:08:07.943Z,15.00
2019-04-01T22:10:37.584Z,14.95
2019-04-01T22:13:07.273Z,14.89
2019-04-01T22:15:36.896Z,14.89
2019-04-01T22:18:06.666Z,14.88
2019-04-01T22:20:36.312Z,14.87
2019-04-01T22:23:06.286Z,14.88
2019-04-01T22:25:36.239Z,14.88
2019-04-01T22:28:05.992Z,14.85
2019-04-01T22:30:35.653Z,14.85
2019-04-01T22:33:05.225Z,14.86
2019-04-01T22:35:38.753Z,14.83
2019-04-01T22:38:06.620Z,14.83
2019-04-01T22:40:36.418Z,14.81
2019-04-01T22:43:06.119Z,14.81
2019-04-01T22:45:35.761Z,14.84
2019-04-01T22:48:05.423Z,14.85
2019-04-01T22:50:35.065Z,14.81
2019-04-01T22:53:04.951Z,14.73
2019-04-01T22:55:34.731Z,14.74
2019-04-01T22:58:04.488Z,14.72
2019-04-01T23:00:34.453Z,14.65
2019-04-01T23:03:04.103Z,14.61
2019-04-01T23:05:33.762Z,14.57
2019-04-01T23:08:03.442Z,14.52
2019-04-01T23:10:33.078Z,14.47
2019-04-01T23:13:02.740Z,14.43
2019-04-01T23:15:32.394Z,14.35
2019-04-01T23:18:02.132Z,14.32
2019-04-01T23:20:33.241Z,14.24
2019-04-01T23:23:03.032Z,14.18
2019-04-01T23:25:32.758Z,14.19
2019-04-01T23:28:02.323Z,14.18
2019-04-01T23:30:32.005Z,14.09
2019-04-01T23:33:01.659Z,14.12
2019-04-01T23:35:31.299Z,14.07
2019-04-01T23:38:00.849Z,14.08
2019-04-01T23:40:32.215Z,14.09
2019-04-01T23:43:02.093Z,14.06
2019-04-01T23:45:31.722Z,14.05
2019-04-01T23:48:01.514Z,14.02
2019-04-01T23:50:31.369Z,13.98
2019-04-01T23:53:02.149Z,13.96
2019-04-01T23:55:32.118Z,13.94
2019-04-01T23:58:01.796Z,13.93
